createdAt,value
2023-04-30T00:02:24.411Z,98427.06
2023-04-30T00:04:51.944Z,98427.77
2023-04-30T00:07:18.962Z,98427.09
2023-04-30T00:09:46.032Z,98426.44
2023-04-30T00:12:13.104Z,98421.20
2023-04-30T00:14:40.338Z,98421.60
2023-04-30T00:17:07.337Z,98429.02
2023-04-30T00:19:35.240Z,98428.59
2023-04-30T00:22:02.312Z,98429.20
2023-04-30T00:24:29.513Z,98426.45
2023-04-30T00:26:56.525Z,98426.15
2023-04-30T00:29:23.597Z,98426.20
2023-04-30T00:31:50.747Z,98425.94
2023-04-30T00:34:17.774Z,98423.02
2023-04-30T00:36:44.781Z,98420.33
2023-04-30T00:39:11.863Z,98419.09
2023-04-30T00:41:39.129Z,98421.40
2023-04-30T00:44:06.725Z,98423.52
2023-04-30T00:46:34.036Z,98425.04
2023-04-30T00:49:04.954Z,98421.01
2023-04-30T00:51:33.490Z,98423.26
2023-04-30T00:54:03.687Z,98422.23
2023-04-30T00:56:31.151Z,98418.58
2023-04-30T00:58:58.233Z,98414.02
2023-04-30T01:01:26.073Z,98414.84
2023-04-30T01:03:53.369Z,98418.10
2023-04-30T01:06:20.732Z,98419.83
2023-04-30T01:08:48.599Z,98415.86
2023-04-30T01:11:23.623Z,98421.33
2023-04-30T01:13:55.826Z,98421.50
2023-04-30T01:16:27.437Z,98422.36
2023-04-30T01:18:54.600Z,98418.56
2023-04-30T01:21:21.779Z,98416.86
2023-04-30T01:24:03.616Z,98417.66
2023-04-30T01:26:34.000Z,98414.54
2023-04-30T01:29:02.783Z,98423.03
2023-04-30T01:31:29.989Z,98416.23
2023-04-30T01:33:57.055Z,98419.15
2023-04-30T01:36:35.522Z,98412.70
2023-04-30T01:39:11.816Z,98415.38
2023-04-30T01:41:58.151Z,98414.05
2023-04-30T01:44:34.415Z,98413.87
2023-04-30T01:47:39.721Z,98412.48
2023-04-30T01:50:12.673Z,98411.94
2023-04-30T01:52:50.772Z,98410.02
2023-04-30T01:55:21.918Z,98413.99
2023-04-30T01:57:59.543Z,98417.63
2023-04-30T02:00:27.660Z,98416.70
2023-04-30T02:02:56.013Z,98414.73
2023-04-30T02:05:23.263Z,98410.39
2023-04-30T02:07:51.513Z,98411.66
2023-04-30T02:10:23.984Z,98411.48
2023-04-30T02:12:51.190Z,98413.59
2023-04-30T02:15:18.502Z,98410.48
2023-04-30T02:17:45.769Z,98410.75
2023-04-30T02:20:13.045Z,98405.96
2023-04-30T02:22:40.258Z,98403.17
2023-04-30T02:25:07.621Z,98403.20
2023-04-30T02:27:34.852Z,98408.67
2023-04-30T02:30:01.883Z,98406.45
2023-04-30T02:32:28.929Z,98400.15
2023-04-30T02:34:56.446Z,98398.27
2023-04-30T02:37:23.500Z,98397.61
2023-04-30T02:39:51.279Z,98397.77
2023-04-30T02:42:18.393Z,98398.77
2023-04-30T02:44:45.464Z,98399.61
2023-04-30T02:47:12.425Z,98403.04
2023-04-30T02:49:40.191Z,98400.42
2023-04-30T02:52:09.681Z,98398.70
2023-04-30T02:54:36.860Z,98401.61
2023-04-30T02:57:04.401Z,98402.64
2023-04-30T02:59:31.417Z,98403.33
2023-04-30T03:01:58.746Z,98406.00
2023-04-30T03:04:26.458Z,98407.08
2023-04-30T03:06:53.471Z,98411.52
2023-04-30T03:09:21.023Z,98411.23
2023-04-30T03:11:48.066Z,98413.89
2023-04-30T03:14:14.990Z,98414.31
2023-04-30T03:16:42.008Z,98411.39
2023-04-30T03:19:09.142Z,98413.83
2023-04-30T03:21:36.235Z,98412.39
2023-04-30T03:24:03.523Z,98412.03
2023-04-30T03:26:31.366Z,98411.03
2023-04-30T03:28:58.431Z,98409.76
2023-04-30T03:31:25.457Z,98413.64
2023-04-30T03:33:52.599Z,98408.63
2023-04-30T03:36:19.647Z,98411.14
2023-04-30T03:38:46.604Z,98413.14
2023-04-30T03:41:13.610Z,98409.34
2023-04-30T03:43:41.274Z,98413.50
2023-04-30T03:46:08.656Z,98410.98
2023-04-30T03:48:35.724Z,98419.45
2023-04-30T03:51:02.737Z,98416.71
2023-04-30T03:53:29.968Z,98418.33
2023-04-30T03:55:57.534Z,98419.50
2023-04-30T03:58:24.540Z,98421.87
2023-04-30T04:00:51.605Z,98416.37
2023-04-30T04:03:18.721Z,98419.95
2023-04-30T04:05:46.221Z,98422.55
2023-04-30T04:08:13.303Z,98424.11
2023-04-30T04:10:41.182Z,98427.83
2023-04-30T04:13:08.645Z,98430.21
2023-04-30T04:15:35.971Z,98429.73
2023-04-30T04:18:03.654Z,98426.11
2023-04-30T04:20:30.913Z,98428.52
2023-04-30T04:22:58.250Z,98424.16
2023-04-30T04:25:26.171Z,98421.94
2023-04-30T04:27:53.809Z,98419.98
2023-04-30T04:30:20.835Z,98421.98
2023-04-30T04:32:50.842Z,98422.17
2023-04-30T04:35:21.092Z,98426.73
2023-04-30T04:37:48.113Z,98430.60
2023-04-30T04:40:15.099Z,98430.16
2023-04-30T04:42:42.237Z,98430.30
2023-04-30T04:45:09.996Z,98428.27
2023-04-30T04:47:38.402Z,98420.27
2023-04-30T04:50:06.861Z,98421.52
2023-04-30T04:52:34.050Z,98423.42
2023-04-30T04:55:01.099Z,98422.67
2023-04-30T04:57:28.081Z,98426.86
2023-04-30T04:59:55.563Z,98426.17
2023-04-30T05:02:23.672Z,98427.70
2023-04-30T05:04:51.135Z,98424.92
2023-04-30T05:07:19.039Z,98421.02
2023-04-30T05:09:49.062Z,98423.20
2023-04-30T05:12:16.204Z,98421.14
2023-04-30T05:14:44.104Z,98422.53
2023-04-30T05:17:11.301Z,98424.41
2023-04-30T05:19:38.336Z,98423.31
2023-04-30T05:22:05.596Z,98426.42
2023-04-30T05:24:32.589Z,98430.25
2023-04-30T05:26:59.668Z,98426.39
2023-04-30T05:29:26.875Z,98425.44
2023-04-30T05:31:54.773Z,98427.08
2023-04-30T05:34:21.852Z,98426.39
2023-04-30T05:36:48.843Z,98424.30
2023-04-30T05:39:15.873Z,98425.36
2023-04-30T05:41:42.903Z,98424.94
2023-04-30T05:44:09.955Z,98425.07
2023-04-30T05:46:37.004Z,98419.54
2023-04-30T05:49:03.978Z,98418.58
2023-04-30T05:51:31.408Z,98417.08
2023-04-30T05:53:58.357Z,98414.64
2023-04-30T05:56:25.490Z,98412.35
2023-04-30T05:58:52.824Z,98411.54
2023-04-30T06:01:21.195Z,98415.09
2023-04-30T06:03:48.143Z,98419.96
2023-04-30T06:06:15.284Z,98421.44
2023-04-30T06:08:44.876Z,98419.41
2023-04-30T06:11:15.446Z,98420.11
2023-04-30T06:13:42.480Z,98415.52
2023-04-30T06:16:09.439Z,98419.91
2023-04-30T06:18:36.395Z,98416.50
2023-04-30T06:21:03.564Z,98412.23
2023-04-30T06:23:30.732Z,98412.67
2023-04-30T06:25:57.714Z,98412.86
2023-04-30T06:28:24.743Z,98409.08
2023-04-30T06:30:52.206Z,98406.42
2023-04-30T06:33:19.129Z,98406.44
2023-04-30T06:35:46.395Z,98407.75
2023-04-30T06:38:18.397Z,98404.83
2023-04-30T06:40:45.464Z,98407.85
2023-04-30T06:43:12.569Z,98405.58
2023-04-30T06:45:39.788Z,98407.90
2023-04-30T06:48:06.841Z,98404.94
2023-04-30T06:50:33.858Z,98404.27
2023-04-30T06:53:01.448Z,98402.27
2023-04-30T06:55:28.620Z,98400.38
2023-04-30T06:57:56.177Z,98396.29
2023-04-30T07:00:23.277Z,98396.09
2023-04-30T07:02:52.179Z,98397.96
2023-04-30T07:05:19.421Z,98395.21
2023-04-30T07:07:46.807Z,98393.80
2023-04-30T07:10:13.902Z,98392.04
2023-04-30T07:12:41.080Z,98388.96
2023-04-30T07:15:08.441Z,98389.98
2023-04-30T07:17:35.728Z,98389.41
2023-04-30T07:20:04.654Z,98384.17
2023-04-30T07:22:32.196Z,98381.27
2023-04-30T07:24:59.233Z,98379.27
2023-04-30T07:27:27.471Z,98380.99
2023-04-30T07:29:55.131Z,98383.38
2023-04-30T07:32:22.328Z,98384.81
2023-04-30T07:34:49.302Z,98385.16
2023-04-30T07:37:16.355Z,98387.66
2023-04-30T07:39:43.289Z,98385.16
2023-04-30T07:42:10.269Z,98388.89
2023-04-30T07:44:37.567Z,98386.39
2023-04-30T07:47:05.031Z,98390.16
2023-04-30T07:49:32.094Z,98391.70
2023-04-30T07:52:01.046Z,98388.96
2023-04-30T07:54:28.171Z,98389.52
2023-04-30T07:59:27.223Z,98389.62
2023-04-30T08:01:54.292Z,98385.48
2023-04-30T08:04:21.283Z,98383.63
2023-04-30T08:06:48.420Z,98379.39
2023-04-30T08:09:15.834Z,98378.25
2023-04-30T08:11:42.798Z,98378.10
2023-04-30T08:14:09.817Z,98377.33
2023-04-30T08:16:36.961Z,98376.17
2023-04-30T08:20:45.617Z,98372.15
2023-04-30T08:23:12.609Z,98374.40
2023-04-30T08:25:39.559Z,98372.31
2023-04-30T08:28:06.900Z,98373.13
2023-04-30T08:30:33.878Z,98375.31
2023-04-30T08:33:00.931Z,98372.97
2023-04-30T08:35:29.907Z,98369.98
2023-04-30T08:37:56.990Z,98365.65
2023-04-30T08:40:38.318Z,98363.15
2023-04-30T08:43:11.941Z,98364.41
2023-04-30T08:45:38.929Z,98366.34
2023-04-30T08:48:06.870Z,98361.89
2023-04-30T08:50:35.149Z,98362.33
2023-04-30T08:53:02.110Z,98365.02
2023-04-30T08:55:30.586Z,98363.26
2023-04-30T08:57:57.593Z,98362.91
2023-04-30T09:00:24.621Z,98362.27
2023-04-30T09:02:52.087Z,98359.34
2023-04-30T09:05:19.110Z,98356.63
2023-04-30T09:10:21.573Z,98354.84
2023-04-30T09:13:05.613Z,98354.34
2023-04-30T09:15:34.059Z,98347.38
2023-04-30T09:18:10.212Z,98346.73
2023-04-30T09:20:37.387Z,98348.02
2023-04-30T09:23:08.687Z,98343.80
2023-04-30T09:25:42.559Z,98343.35
2023-04-30T09:28:13.189Z,98342.50
2023-04-30T09:30:40.979Z,98336.64
2023-04-30T09:33:11.459Z,98334.52
2023-04-30T09:35:40.025Z,98333.00
2023-04-30T09:38:07.113Z,98334.73
2023-04-30T09:40:38.656Z,98331.52
2023-04-30T09:43:05.799Z,98330.88
2023-04-30T09:45:50.096Z,98333.66
2023-04-30T09:48:29.771Z,98333.61
2023-04-30T09:50:57.031Z,98330.45
2023-04-30T09:53:24.348Z,98330.27
2023-04-30T09:55:51.512Z,98329.95
2023-04-30T09:58:19.093Z,98328.20
2023-04-30T10:00:47.089Z,98323.73
2023-04-30T10:03:14.668Z,98317.01
2023-04-30T10:05:42.866Z,98315.84
2023-04-30T10:08:21.216Z,98313.05
2023-04-30T10:10:52.132Z,98316.40
2023-04-30T10:13:20.552Z,98312.92
2023-04-30T10:15:52.956Z,98319.27
2023-04-30T10:18:25.231Z,98320.38
2023-04-30T10:20:52.238Z,98318.05
2023-04-30T10:23:19.212Z,98312.39
2023-04-30T10:25:46.345Z,98304.67
2023-04-30T10:28:13.369Z,98300.64
2023-04-30T10:30:45.329Z,98300.41
2023-04-30T10:33:16.865Z,98295.06
2023-04-30T10:36:00.202Z,98288.14
2023-04-30T10:38:29.165Z,98288.73
2023-04-30T10:41:00.045Z,98296.11
2023-04-30T10:43:27.796Z,98286.33
2023-04-30T10:45:54.873Z,98283.48
2023-04-30T10:48:25.619Z,98282.53
2023-04-30T10:50:55.467Z,98276.14
2023-04-30T10:53:27.996Z,98273.77
2023-04-30T10:56:00.685Z,98277.59
2023-04-30T10:58:30.763Z,98278.93
2023-04-30T11:01:05.303Z,98281.66
2023-04-30T11:03:32.975Z,98277.79
2023-04-30T11:06:13.573Z,98277.79
2023-04-30T11:08:43.655Z,98276.68
2023-04-30T11:11:11.069Z,98274.71
2023-04-30T11:13:42.369Z,98276.04
2023-04-30T11:16:09.416Z,98273.25
2023-04-30T11:18:41.992Z,98270.59
2023-04-30T11:21:09.077Z,98269.24
2023-04-30T11:23:41.575Z,98262.90
2023-04-30T11:26:09.467Z,98270.71
2023-04-30T11:28:37.775Z,98272.52
2023-04-30T11:31:05.031Z,98268.70
2023-04-30T11:33:32.599Z,98269.86
2023-04-30T11:36:00.470Z,98272.76
2023-04-30T11:38:35.899Z,98271.54
2023-04-30T11:41:03.432Z,98269.84
2023-04-30T11:43:34.342Z,98271.83
2023-04-30T11:46:11.832Z,98268.83
2023-04-30T11:48:43.938Z,98268.64
2023-04-30T11:51:14.738Z,98260.83
2023-04-30T11:53:42.084Z,98261.77
2023-04-30T11:56:09.019Z,98262.16
2023-04-30T11:58:38.699Z,98263.06
2023-04-30T12:01:06.936Z,98262.98
2023-04-30T12:03:34.090Z,98258.64
2023-04-30T12:06:02.462Z,98259.05
2023-04-30T12:08:30.234Z,98255.14
2023-04-30T12:10:57.176Z,98254.54
2023-04-30T12:13:24.413Z,98253.97
2023-04-30T12:15:59.478Z,98251.96
2023-04-30T12:18:27.560Z,98255.84
2023-04-30T12:20:54.944Z,98251.86
2023-04-30T12:23:21.989Z,98248.90
2023-04-30T12:25:48.922Z,98244.04
2023-04-30T12:28:16.392Z,98250.05
2023-04-30T12:30:43.740Z,98246.48
2023-04-30T12:33:11.013Z,98242.98
2023-04-30T12:35:42.404Z,98244.23
2023-04-30T12:38:09.819Z,98247.23
2023-04-30T12:40:37.150Z,98242.23
2023-04-30T12:43:08.755Z,98237.98
2023-04-30T12:46:11.359Z,98233.96
2023-04-30T12:48:47.287Z,98235.40
2023-04-30T12:51:19.744Z,98229.81
2023-04-30T12:53:47.068Z,98230.71
2023-04-30T12:56:16.403Z,98230.95
2023-04-30T12:58:45.780Z,98233.59
2023-04-30T13:01:13.307Z,98228.77
2023-04-30T13:03:40.754Z,98224.45
2023-04-30T13:06:07.934Z,98225.68
2023-04-30T13:08:45.610Z,98226.67
2023-04-30T13:11:17.136Z,98230.70
2023-04-30T13:13:44.154Z,98232.85
2023-04-30T13:16:11.317Z,98228.09
2023-04-30T13:18:38.550Z,98220.98
2023-04-30T13:21:05.505Z,98219.58
2023-04-30T13:23:41.208Z,98226.55
2023-04-30T13:26:16.951Z,98226.64
2023-04-30T13:28:44.678Z,98224.56
2023-04-30T13:31:11.674Z,98221.05
2023-04-30T13:33:38.768Z,98221.29
2023-04-30T13:36:06.006Z,98222.70
2023-04-30T13:38:33.128Z,98221.36
2023-04-30T13:41:00.486Z,98224.96
2023-04-30T13:43:27.916Z,98226.31
2023-04-30T13:45:54.980Z,98228.45
2023-04-30T13:48:22.239Z,98229.20
2023-04-30T13:50:49.314Z,98235.17
2023-04-30T13:53:16.284Z,98231.16
2023-04-30T13:55:43.279Z,98227.91
2023-04-30T13:58:10.305Z,98228.27
2023-04-30T14:00:37.322Z,98228.58
2023-04-30T14:03:07.212Z,98225.05
2023-04-30T14:05:36.292Z,98222.70
2023-04-30T14:08:04.966Z,98229.23
2023-04-30T14:10:32.809Z,98230.80
2023-04-30T14:12:59.791Z,98229.42
2023-04-30T14:15:27.747Z,98232.92
2023-04-30T14:17:55.178Z,98229.42
2023-04-30T14:20:22.339Z,98234.77
2023-04-30T14:22:49.240Z,98233.64
2023-04-30T14:25:16.694Z,98239.19
2023-04-30T14:27:43.693Z,98245.52
2023-04-30T14:30:11.258Z,98251.05
2023-04-30T14:32:39.177Z,98255.87
2023-04-30T14:35:07.357Z,98252.08
2023-04-30T14:37:35.001Z,98256.52
2023-04-30T14:40:03.081Z,98252.00
2023-04-30T14:42:30.422Z,98252.70
2023-04-30T14:44:57.547Z,98254.56
2023-04-30T14:47:27.360Z,98257.17
2023-04-30T14:49:54.806Z,98256.91
2023-04-30T14:52:22.539Z,98256.64
2023-04-30T14:54:49.775Z,98249.80
2023-04-30T14:57:17.553Z,98249.36
2023-04-30T14:59:44.600Z,98255.41
2023-04-30T15:02:11.708Z,98259.27
2023-04-30T15:04:38.898Z,98261.31
2023-04-30T15:07:05.842Z,98262.30
2023-04-30T15:09:32.979Z,98266.04
2023-04-30T15:11:59.914Z,98272.05
2023-04-30T15:14:27.081Z,98272.66
2023-04-30T15:16:54.408Z,98275.23
2023-04-30T15:19:21.428Z,98268.98
2023-04-30T15:21:49.216Z,98273.28
2023-04-30T15:24:17.998Z,98273.70
2023-04-30T15:26:45.252Z,98275.52
2023-04-30T15:29:12.403Z,98276.65
2023-04-30T15:31:39.527Z,98274.20
2023-04-30T15:34:06.534Z,98275.86
2023-04-30T15:36:34.625Z,98276.02
2023-04-30T15:39:01.681Z,98279.31
2023-04-30T15:41:28.849Z,98278.86
2023-04-30T15:43:55.806Z,98277.27
2023-04-30T15:46:23.065Z,98282.93
2023-04-30T15:48:50.118Z,98285.54
2023-04-30T15:51:17.502Z,98289.08
2023-04-30T15:53:44.397Z,98290.77
2023-04-30T15:56:12.104Z,98293.23
2023-04-30T15:58:39.531Z,98307.73
2023-04-30T16:01:06.524Z,98310.08
2023-04-30T16:03:34.189Z,98314.02
2023-04-30T16:06:01.861Z,98314.66
2023-04-30T16:08:29.805Z,98321.08
2023-04-30T16:10:56.838Z,98325.04
2023-04-30T16:13:24.173Z,98330.40
2023-04-30T16:15:51.110Z,98336.91
2023-04-30T16:18:18.136Z,98340.42
2023-04-30T16:20:47.197Z,98344.73
2023-04-30T16:23:16.222Z,98343.21
2023-04-30T16:25:43.253Z,98349.42
2023-04-30T16:28:10.371Z,98352.51
2023-04-30T16:30:37.512Z,98356.61
2023-04-30T16:33:04.622Z,98357.38
2023-04-30T16:35:31.700Z,98362.58
2023-04-30T16:37:58.655Z,98363.44
2023-04-30T16:40:25.626Z,98371.09
2023-04-30T16:42:52.700Z,98375.23
2023-04-30T16:45:19.907Z,98378.14
2023-04-30T16:47:48.644Z,98379.02
2023-04-30T16:50:16.245Z,98383.07
2023-04-30T16:52:43.449Z,98388.95
2023-04-30T16:55:10.862Z,98391.49
2023-04-30T16:57:38.019Z,98401.52
2023-04-30T17:00:06.494Z,98397.64
2023-04-30T17:02:34.478Z,98402.44
2023-04-30T17:05:01.526Z,98407.70
2023-04-30T17:07:28.435Z,98411.02
2023-04-30T17:09:56.065Z,98419.70
2023-04-30T17:12:24.089Z,98427.83
2023-04-30T17:14:52.164Z,98433.55
2023-04-30T17:17:19.463Z,98440.16
2023-04-30T17:19:46.451Z,98446.98
2023-04-30T17:22:13.413Z,98453.85
2023-04-30T17:24:40.429Z,98456.98
2023-04-30T17:27:08.040Z,98462.66
2023-04-30T17:29:35.166Z,98463.96
2023-04-30T17:32:02.214Z,98466.98
2023-04-30T17:34:29.574Z,98472.28
2023-04-30T17:36:57.080Z,98472.68
2023-04-30T17:39:24.664Z,98479.46
2023-04-30T17:41:51.523Z,98478.81
2023-04-30T17:44:19.498Z,98482.92
2023-04-30T17:46:46.686Z,98481.89
2023-04-30T17:49:13.881Z,98486.31
2023-04-30T17:51:40.773Z,98490.39
2023-04-30T17:54:07.841Z,98487.80
2023-04-30T17:56:34.806Z,98495.79
2023-04-30T17:59:02.017Z,98497.09
2023-04-30T18:01:29.197Z,98503.59
2023-04-30T18:03:56.342Z,98505.45
2023-04-30T18:06:23.437Z,98508.68
2023-04-30T18:08:50.861Z,98510.83
2023-04-30T18:11:17.810Z,98515.02
2023-04-30T18:13:45.069Z,98514.77
2023-04-30T18:16:14.038Z,98515.38
2023-04-30T18:18:41.470Z,98517.79
2023-04-30T18:21:11.364Z,98519.80
2023-04-30T18:23:39.094Z,98523.05
2023-04-30T18:26:06.145Z,98524.94
2023-04-30T18:28:34.011Z,98528.10
2023-04-30T18:31:01.243Z,98528.30
2023-04-30T18:33:28.350Z,98529.81
2023-04-30T18:35:57.162Z,98531.23
2023-04-30T18:38:24.656Z,98537.31
2023-04-30T18:40:55.879Z,98541.58
2023-04-30T18:43:23.466Z,98540.67
2023-04-30T18:45:51.365Z,98541.66
2023-04-30T18:48:22.983Z,98544.23
2023-04-30T18:50:50.007Z,98551.33
2023-04-30T18:53:17.375Z,98549.73
2023-04-30T18:55:45.175Z,98555.55
2023-04-30T18:58:12.929Z,98552.88
2023-04-30T19:00:42.910Z,98553.55
2023-04-30T19:03:10.535Z,98558.20
2023-04-30T19:05:38.056Z,98561.30
2023-04-30T19:08:05.622Z,98558.80
2023-04-30T19:10:34.136Z,98561.60
2023-04-30T19:13:01.718Z,98569.90
2023-04-30T19:15:30.790Z,98573.11
2023-04-30T19:17:57.907Z,98574.45
2023-04-30T19:20:25.114Z,98574.17
2023-04-30T19:22:52.101Z,98578.59
2023-04-30T19:25:19.253Z,98580.83
2023-04-30T19:27:46.979Z,98581.35
2023-04-30T19:30:14.563Z,98584.59
2023-04-30T19:32:42.165Z,98585.87
2023-04-30T19:35:09.506Z,98589.21
2023-04-30T19:37:36.812Z,98585.79
2023-04-30T19:40:09.276Z,98585.77
2023-04-30T19:42:36.759Z,98592.63
2023-04-30T19:45:03.930Z,98588.23
2023-04-30T19:47:31.606Z,98588.71
2023-04-30T19:49:59.583Z,98591.70
2023-04-30T19:52:26.716Z,98593.77
2023-04-30T19:54:54.374Z,98592.79
2023-04-30T19:57:21.855Z,98594.58
2023-04-30T19:59:49.365Z,98600.02
2023-04-30T20:02:16.562Z,98599.42
2023-04-30T20:04:44.084Z,98600.34
2023-04-30T20:07:13.950Z,98606.39
2023-04-30T20:09:41.349Z,98608.77
2023-04-30T20:12:08.314Z,98611.80
2023-04-30T20:14:35.928Z,98609.80
2023-04-30T20:17:03.710Z,98609.73
2023-04-30T20:19:32.236Z,98612.14
2023-04-30T20:21:59.151Z,98613.09
2023-04-30T20:24:26.108Z,98614.35
2023-04-30T20:26:53.627Z,98618.72
2023-04-30T20:29:23.155Z,98616.32
2023-04-30T20:31:50.598Z,98618.73
2023-04-30T20:34:17.708Z,98621.16
2023-04-30T20:36:45.013Z,98626.15
2023-04-30T20:39:11.949Z,98632.21
2023-04-30T20:41:39.397Z,98632.70
2023-04-30T20:44:06.418Z,98631.16
2023-04-30T20:46:33.568Z,98630.71
2023-04-30T20:49:04.564Z,98636.24
2023-04-30T20:51:31.465Z,98644.38
2023-04-30T20:53:58.440Z,98642.69
2023-04-30T20:56:25.962Z,98643.61
2023-04-30T20:58:53.963Z,98639.50
2023-04-30T21:01:21.063Z,98640.55
2023-04-30T21:03:48.980Z,98647.49
2023-04-30T21:06:17.609Z,98651.92
2023-04-30T21:08:44.888Z,98655.41
2023-04-30T21:11:14.247Z,98659.38
2023-04-30T21:13:41.905Z,98657.34
2023-04-30T21:16:09.077Z,98662.38
2023-04-30T21:18:36.089Z,98666.73
2023-04-30T21:21:04.953Z,98668.51
2023-04-30T21:23:32.750Z,98673.29
2023-04-30T21:26:00.049Z,98671.54
2023-04-30T21:28:27.168Z,98679.21
2023-04-30T21:30:54.450Z,98677.73
2023-04-30T21:33:21.822Z,98680.08
2023-04-30T21:35:49.010Z,98682.02
2023-04-30T21:38:16.524Z,98682.34
2023-04-30T21:40:43.522Z,98688.67
2023-04-30T21:43:10.490Z,98687.79
2023-04-30T21:45:37.873Z,98692.77
2023-04-30T21:48:05.705Z,98696.41
2023-04-30T21:50:33.731Z,98698.37
2023-04-30T21:53:03.221Z,98701.46
2023-04-30T21:55:30.372Z,98700.23
2023-04-30T21:57:57.458Z,98703.52
2023-04-30T22:00:24.420Z,98706.08
2023-04-30T22:02:51.590Z,98712.28
2023-04-30T22:05:19.797Z,98713.89
2023-04-30T22:07:47.530Z,98714.35
2023-04-30T22:10:17.549Z,98714.08
2023-04-30T22:12:47.435Z,98720.11
2023-04-30T22:15:15.157Z,98724.58
2023-04-30T22:17:42.281Z,98724.99
2023-04-30T22:20:10.230Z,98727.47
2023-04-30T22:22:37.759Z,98729.80
2023-04-30T22:25:05.118Z,98733.77
2023-04-30T22:27:33.062Z,98735.46
2023-04-30T22:30:00.224Z,98737.89
2023-04-30T22:32:27.667Z,98741.77
2023-04-30T22:34:54.800Z,98744.15
2023-04-30T22:37:21.823Z,98746.02
2023-04-30T22:39:48.770Z,98748.11
2023-04-30T22:42:16.864Z,98749.48
2023-04-30T22:44:46.131Z,98750.33
2023-04-30T22:47:13.240Z,98753.73
2023-04-30T22:49:40.785Z,98753.80
2023-04-30T22:52:08.207Z,98758.91
2023-04-30T22:54:35.413Z,98761.37
2023-04-30T22:57:03.210Z,98761.54
2023-04-30T22:59:30.852Z,98759.48
2023-04-30T23:01:57.884Z,98754.79
2023-04-30T23:04:25.891Z,98759.02
2023-04-30T23:06:53.401Z,98758.83
2023-04-30T23:09:20.530Z,98760.88
2023-04-30T23:11:48.351Z,98763.98
2023-04-30T23:14:15.432Z,98765.05
2023-04-30T23:16:42.902Z,98770.48
2023-04-30T23:19:10.170Z,98769.46
2023-04-30T23:21:37.157Z,98769.28
2023-04-30T23:24:04.415Z,98769.11
2023-04-30T23:26:32.555Z,98770.36
2023-04-30T23:28:59.604Z,98771.58
2023-04-30T23:31:27.443Z,98772.23
2023-04-30T23:33:54.659Z,98769.19
2023-04-30T23:36:22.032Z,98768.36
2023-04-30T23:38:49.652Z,98769.71
2023-04-30T23:41:16.717Z,98772.63
2023-04-30T23:43:43.598Z,98775.46
2023-04-30T23:46:10.832Z,98777.04
2023-04-30T23:48:38.696Z,98782.20
2023-04-30T23:51:05.653Z,98782.45
2023-04-30T23:53:32.860Z,98783.58
2023-04-30T23:56:00.186Z,98782.48
2023-04-30T23:58:27.843Z,98787.14
